.
WxDataArchive / Data Records for 2012-01-31
2012-01-30 January 2012 2012-02-01

Data Records for Tuesday, 31 January 2012

Time	Temp	Chill	HIndex	Humid	Dewpt	 Wind 	HiWind	WindDir	Rain 	Barom 
-----	----	-----	------	-----	-----	------	------	-------	-----	----- 
00:00	44.2	44.2	44.2	61	31.6	2	7	248	0.00	29.968 
00:05	44.2	44.2	44.2	61	31.6	2	6	248	0.00	29.968 
00:10	44.2	44.2	44.2	61	31.6	2	4	248	0.00	29.968 
00:15	44.3	44.3	44.3	61	31.7	2	4	248	0.00	29.968 
00:20	44.3	44.3	44.3	61	31.7	2	4	248	0.00	29.968 
00:25	44.3	44.3	44.3	61	31.7	2	5	248	0.00	29.968 
00:30	44.5	44.5	44.5	61	31.9	2	7	248	0.00	29.967 
00:35	44.3	44.3	44.3	61	31.7	2	4	248	0.00	29.967 
00:40	44.3	44.3	44.3	61	31.7	1	4	248	0.00	29.967 
00:45	44.3	44.3	44.3	61	31.7	1	6	248	0.00	29.971 
00:50	44.2	44.2	44.2	62	32.0	1	4	248	0.00	29.971 
00:55	44.2	44.2	44.2	62	32.0	1	4	248	0.00	29.971 
01:00	44.1	44.1	44.1	62	31.9	1	4	248	0.00	29.969 
01:05	44.1	44.1	44.1	62	31.9	1	4	248	0.00	29.969 
01:10	44.1	44.1	44.1	62	31.9	1	4	248	0.00	29.969 
01:15	44.1	44.1	44.1	62	31.9	1	4	248	0.00	29.963 
01:20	44.1	44.1	44.1	62	31.9	1	4	248	0.00	29.963 
01:25	43.9	43.9	43.9	62	31.7	1	3	248	0.00	29.963 
01:30	43.8	43.8	43.8	62	31.6	1	4	225	0.00	29.963 
01:35	43.8	43.8	43.8	63	32.0	1	3	248	0.00	29.963 
01:40	43.8	43.8	43.8	63	32.0	2	9	225	0.00	29.963 
01:45	43.9	43.9	43.9	63	32.1	1	5	225	0.00	29.963 
01:50	44.1	44.1	44.1	63	32.3	1	5	248	0.00	29.963 
01:55	44.1	44.1	44.1	62	31.9	1	5	225	0.00	29.963 
02:00	44.2	44.2	44.2	63	32.4	1	4	270	0.00	29.963 
02:05	44.3	44.3	44.3	62	32.1	2	5	248	0.00	29.963 
02:10	44.5	44.5	44.5	62	32.3	1	3	248	0.00	29.963 
02:15	44.6	44.6	44.6	62	32.4	2	5	248	0.00	29.958 
02:20	44.8	44.8	44.8	62	32.6	2	5	248	0.00	29.958 
02:25	44.8	44.8	44.8	62	32.6	1	4	248	0.00	29.958 
02:30	45.1	45.1	45.1	62	32.9	2	6	248	0.00	29.961 
02:35	45.2	45.2	45.2	62	33.0	2	5	248	0.00	29.961 
02:40	45.4	45.4	45.4	61	32.7	2	6	248	0.00	29.961 
02:45	45.5	45.5	45.5	61	32.8	2	6	248	0.00	29.963 
02:50	45.7	45.7	45.7	61	33.0	2	9	248	0.00	29.963 
02:55	46.0	46.0	46.0	61	33.3	2	7	248	0.00	29.963 
03:00	46.0	46.0	46.0	61	33.3	2	9	248	0.00	29.971 
03:05	46.2	46.2	46.2	60	33.1	3	6	248	0.00	29.971 
03:10	46.4	46.4	46.4	60	33.3	2	7	248	0.00	29.971 
03:15	46.5	46.5	46.5	60	33.4	2	7	248	0.00	29.968 
03:20	46.5	46.5	46.5	60	33.4	2	6	248	0.00	29.968 
03:25	46.5	46.5	46.5	60	33.4	2	5	248	0.00	29.968 
03:30	46.7	46.7	46.7	59	33.1	3	9	248	0.00	29.967 
03:35	46.8	46.8	46.8	59	33.2	3	7	248	0.00	29.967 
03:40	46.8	46.8	46.8	59	33.2	3	10	248	0.00	29.967 
03:45	47.0	47.0	47.0	59	33.4	3	7	248	0.00	29.968 
03:50	46.8	46.8	46.8	59	33.2	3	6	248	0.00	29.968 
03:55	46.8	46.8	46.8	59	33.2	3	12	248	0.00	29.968 
04:00	46.8	46.8	46.8	59	33.2	2	9	248	0.00	29.968 
04:05	46.7	46.7	46.7	59	33.1	2	5	248	0.00	29.968 
04:10	46.5	46.5	46.5	59	33.0	2	9	270	0.00	29.968 
04:15	46.5	46.5	46.5	59	33.0	2	6	248	0.00	29.969 
04:20	46.4	46.4	46.4	60	33.3	2	7	248	0.00	29.969 
04:25	46.4	46.4	46.4	60	33.3	2	5	248	0.00	29.969 
04:30	46.2	46.2	46.2	60	33.1	2	7	248	0.00	29.968 
04:35	46.2	46.2	46.2	60	33.1	2	7	248	0.00	29.968 
04:40	46.2	46.2	46.2	60	33.1	3	9	248	0.00	29.968 
04:45	46.2	44.5	46.2	59	32.7	4	7	248	0.00	29.965 
04:50	46.2	46.2	46.2	59	32.7	3	7	248	0.00	29.965 
04:55	46.2	46.2	46.2	59	32.7	2	6	248	0.00	29.965 
05:00	46.1	46.1	46.1	59	32.6	3	6	248	0.00	29.967 
05:05	46.1	46.1	46.1	59	32.6	2	7	248	0.00	29.967 
05:10	46.1	44.4	46.1	59	32.6	4	10	248	0.00	29.967 
05:15	46.1	46.1	46.1	58	32.2	3	10	248	0.00	29.967 
05:20	46.1	46.1	46.1	58	32.2	3	7	248	0.00	29.967 
05:25	46.2	46.2	46.2	58	32.2	3	11	248	0.00	29.967 
05:30	46.1	46.1	46.1	58	32.2	2	6	248	0.00	29.967 
05:35	46.1	46.1	46.1	58	32.2	3	9	248	0.00	29.967 
05:40	46.0	46.0	46.0	58	32.1	2	7	248	0.00	29.967 
05:45	46.0	46.0	46.0	58	32.1	3	6	248	0.00	29.966 
05:50	45.8	45.8	45.8	58	31.9	2	9	248	0.00	29.966 
05:55	45.8	45.8	45.8	58	31.9	3	9	248	0.00	29.966 
06:00	45.8	45.8	45.8	58	31.9	3	8	248	0.00	29.968 
06:05	45.7	45.7	45.7	58	31.8	2	6	248	0.00	29.968 
06:10	45.7	45.7	45.7	58	31.8	3	7	248	0.00	29.968 
06:15	45.5	45.5	45.5	58	31.6	3	6	248	0.00	29.967 
06:20	45.7	45.7	45.7	58	31.8	3	6	248	0.00	29.967 
06:25	45.7	45.7	45.7	58	31.8	2	5	248	0.00	29.967 
06:30	45.7	45.7	45.7	57	31.3	3	8	248	0.00	29.968 
06:35	45.7	45.7	45.7	57	31.3	2	9	248	0.00	29.968 
06:40	45.7	45.7	45.7	57	31.3	3	9	248	0.00	29.968 
06:45	45.5	45.5	45.5	57	31.2	2	6	248	0.00	29.969 
06:50	45.5	45.5	45.5	57	31.2	3	6	248	0.00	29.969 
06:55	45.4	45.4	45.4	57	31.1	3	10	248	0.00	29.969 
07:00	45.4	45.4	45.4	57	31.1	3	7	248	0.00	29.970 
07:05	45.4	45.4	45.4	57	31.1	2	7	248	0.00	29.970 
07:10	45.2	45.2	45.2	57	30.9	2	6	248	0.00	29.970 
07:15	45.1	45.1	45.1	58	31.2	2	6	248	0.00	29.972 
07:20	45.1	45.1	45.1	58	31.2	3	11	248	0.00	29.972 
07:25	44.9	44.9	44.9	58	31.0	3	11	248	0.00	29.972 
07:30	44.9	44.9	44.9	58	31.0	2	7	248	0.00	29.974 
07:35	44.8	44.8	44.8	58	30.9	2	5	248	0.00	29.974 
07:40	44.8	44.8	44.8	58	30.9	3	7	248	0.00	29.974 
07:45	44.6	44.6	44.6	58	30.7	3	7	248	0.00	29.981 
07:50	44.6	44.6	44.6	58	30.7	2	6	248	0.00	29.981 
07:55	44.6	44.6	44.6	58	30.7	2	6	248	0.00	29.981 
08:00	44.6	44.6	44.6	58	30.7	2	6	248	0.00	29.982 
08:05	44.6	44.6	44.6	58	30.7	3	9	248	0.00	29.982 
08:10	44.6	44.6	44.6	58	30.7	2	5	248	0.00	29.982 
08:15	44.6	44.6	44.6	58	30.7	3	9	248	0.00	29.977 
08:20	44.8	44.8	44.8	57	30.5	3	7	248	0.00	29.977 
08:25	44.9	44.9	44.9	57	30.6	3	9	248	0.00	29.977 
08:30	45.1	45.1	45.1	57	30.8	3	9	248	0.00	29.981 
08:35	45.2	45.2	45.2	57	30.9	2	5	248	0.00	29.981 
08:40	45.4	45.4	45.4	57	31.1	2	6	225	0.00	29.981 
08:45	45.5	45.5	45.5	57	31.2	2	5	248	0.00	29.985 
08:50	45.8	45.8	45.8	56	31.0	3	7	248	0.00	29.985 
08:55	46.1	46.1	46.1	56	31.3	3	10	248	0.00	29.985 
09:00	46.2	46.2	46.2	55	30.9	3	6	248	0.00	29.985 
09:05	46.5	46.5	46.5	55	31.2	2	7	248	0.00	29.985 
09:10	46.7	46.7	46.7	55	31.4	3	11	248	0.00	29.985 
09:15	46.8	46.8	46.8	55	31.5	3	12	248	0.00	29.983 
09:20	47.0	47.0	47.0	54	31.2	3	7	248	0.00	29.983 
09:25	47.3	47.3	47.3	54	31.5	3	7	248	0.00	29.983 
09:30	47.7	47.7	47.7	54	31.9	2	6	248	0.00	29.981 
09:35	48.0	48.0	48.0	54	32.2	3	7	248	0.00	29.981 
09:40	48.3	48.3	48.3	53	32.0	2	6	248	0.00	29.981 
09:45	48.6	48.6	48.6	53	32.3	2	7	248	0.00	29.970 
09:50	48.9	48.9	48.9	52	32.1	3	10	248	0.00	29.970 
09:55	49.2	49.2	49.2	52	32.3	2	7	248	0.00	29.970 
10:00	49.4	49.4	49.4	52	32.5	3	9	248	0.00	29.965 
10:05	49.5	49.5	49.5	52	32.6	3	7	248	0.00	29.965 
10:10	49.6	48.4	49.6	51	32.2	4	12	248	0.00	29.965 
10:15	49.8	49.8	49.8	52	32.9	2	6	248	0.00	29.965 
10:20	50.1	50.1	50.1	52	33.2	2	7	248	0.00	29.965 
10:25	50.2	50.2	50.2	51	32.8	3	9	248	0.00	29.965 
10:30	50.5	50.5	50.5	51	33.1	3	7	248	0.00	29.964 
10:35	50.8	50.8	50.8	51	33.3	4	7	248	0.00	29.964 
10:40	51.1	51.1	51.1	51	33.6	2	6	248	0.00	29.964 
10:45	51.4	51.4	51.4	50	33.4	3	9	248	0.00	29.964 
10:50	51.7	51.7	51.7	50	33.7	3	12	248	0.00	29.964 
10:55	52.0	52.0	52.0	50	33.9	3	7	248	0.00	29.964 
11:00	52.2	52.2	52.2	50	34.1	3	9	248	0.00	29.963 
11:05	52.5	52.5	52.5	50	34.4	3	10	248	0.00	29.963 
11:10	52.8	52.8	52.8	50	34.7	4	10	248	0.00	29.963 
11:15	53.1	53.1	53.1	50	35.0	3	9	225	0.00	29.961 
11:20	53.2	53.2	53.2	49	34.5	4	11	248	0.00	29.961 
11:25	53.5	53.5	53.5	50	35.3	4	13	248	0.00	29.961 
11:30	53.6	53.6	53.6	49	34.9	3	10	248	0.00	29.958 
11:35	53.9	53.9	53.9	50	35.7	4	17	248	0.00	29.958 
11:40	54.1	54.1	54.1	50	35.9	4	17	248	0.00	29.958 
11:45	54.1	54.1	54.1	50	35.9	5	11	248	0.00	29.953 
11:50	54.2	54.2	54.2	50	36.0	3	10	270	0.00	29.953 
11:55	54.4	54.4	54.4	50	36.2	4	12	248	0.00	29.953 
12:00	54.5	54.5	54.5	51	36.7	3	10	248	0.00	29.949 
12:05	54.7	54.7	54.7	51	36.9	3	7	248	0.00	29.949 
12:10	54.7	54.7	54.7	51	36.9	4	8	248	0.00	29.949 
12:15	54.8	54.8	54.8	51	37.0	4	11	248	0.00	29.943 
12:20	55.1	55.1	55.1	52	37.8	2	6	248	0.00	29.943 
12:25	55.3	55.3	55.3	51	37.5	4	10	248	0.00	29.943 
12:30	55.3	55.3	55.3	51	37.5	5	12	248	0.00	29.935 
12:35	55.4	55.4	55.4	52	38.1	4	12	248	0.00	29.935 
12:40	55.6	55.6	55.6	51	37.8	4	10	248	0.00	29.935 
12:45	56.0	56.0	56.0	52	38.6	3	7	248	0.00	29.928 
12:50	56.0	56.0	56.0	52	38.6	3	8	248	0.00	29.928 
12:55	56.0	56.0	56.0	53	39.1	3	7	270	0.00	29.928 
13:00	56.2	56.2	56.2	52	38.8	5	12	248	0.00	29.927 
13:05	56.2	56.2	56.2	53	39.3	3	9	248	0.00	29.927 
13:10	56.3	56.3	56.3	53	39.4	3	7	248	0.00	29.927 
13:15	56.3	56.3	56.3	52	38.9	4	11	248	0.00	29.918 
13:20	56.2	56.2	56.2	52	38.8	5	15	248	0.00	29.918 
13:25	56.0	56.0	56.0	53	39.1	3	12	248	0.00	29.918 
13:30	56.0	56.0	56.0	53	39.1	5	13	248	0.00	29.917 
13:35	55.9	55.9	55.9	53	39.0	5	10	248	0.00	29.917 
13:40	55.6	55.6	55.6	54	39.2	4	12	248	0.00	29.917 
13:45	55.4	55.4	55.4	54	39.0	4	10	248	0.00	29.914 
13:50	55.4	55.4	55.4	55	39.5	2	5	248	0.00	29.914 
13:55	55.3	55.3	55.3	55	39.4	4	14	248	0.00	29.914 
14:00	55.3	55.3	55.3	55	39.4	4	9	248	0.00	29.907 
14:05	55.3	55.3	55.3	56	39.9	4	11	248	0.00	29.907 
14:10	55.3	55.3	55.3	56	39.9	3	7	248	0.00	29.907 
14:15	55.3	55.3	55.3	56	39.9	3	10	248	0.00	29.900 
14:20	55.3	55.3	55.3	57	40.3	2	5	225	0.00	29.900 
14:25	55.3	55.3	55.3	58	40.8	3	11	248	0.00	29.900 
14:30	55.1	55.1	55.1	57	40.1	4	12	248	0.00	29.896 
14:35	55.1	55.1	55.1	58	40.6	4	12	248	0.00	29.896 
14:40	55.1	55.1	55.1	58	40.6	3	7	248	0.00	29.896 
14:45	55.3	55.3	55.3	58	40.8	4	10	248	0.00	29.893 
14:50	55.4	55.4	55.4	58	40.9	3	7	248	0.00	29.893 
14:55	55.6	55.6	55.6	59	41.5	3	9	248	0.00	29.893 
15:00	55.9	55.9	55.9	59	41.8	2	5	248	0.00	29.878 
15:05	56.2	56.2	56.2	59	42.1	2	5	248	0.00	29.878 
15:10	56.3	56.3	56.3	59	42.2	3	6	248	0.00	29.878 
15:15	56.2	56.2	56.2	59	42.1	2	6	248	0.00	29.877 
15:20	56.2	56.2	56.2	60	42.5	3	6	248	0.00	29.877 
15:25	56.0	56.0	56.0	60	42.3	2	5	248	0.00	29.877 
15:30	56.0	56.0	56.0	61	42.7	3	11	270	0.00	29.876 
15:35	56.0	56.0	56.0	61	42.7	3	7	248	0.00	29.876 
15:40	56.2	56.2	56.2	62	43.4	2	6	248	0.00	29.876 
15:45	56.5	56.5	56.5	62	43.6	3	9	248	0.00	29.872 
15:50	56.7	56.7	56.7	61	43.4	3	7	248	0.00	29.872 
15:55	56.9	56.9	56.9	61	43.6	3	10	248	0.00	29.872 
16:00	57.0	57.0	57.0	61	43.7	3	11	248	0.00	29.870 
16:05	57.0	57.0	57.0	61	43.7	2	10	248	0.00	29.870 
16:10	56.9	56.9	56.9	62	44.0	3	6	248	0.00	29.870 
16:15	56.9	56.9	56.9	63	44.4	2	5	248	0.00	29.875 
16:20	56.9	56.9	56.9	63	44.4	3	7	248	0.00	29.875 
16:25	56.9	56.9	56.9	63	44.4	4	12	248	0.00	29.875 
16:30	57.2	57.2	57.2	63	44.7	3	10	248	0.00	29.863 
16:35	57.3	57.3	57.3	63	44.8	2	6	248	0.00	29.863 
16:40	57.3	57.3	57.3	63	44.8	3	7	248	0.00	29.863 
16:45	57.3	57.3	57.3	63	44.8	3	9	248	0.00	29.863 
16:50	57.3	57.3	57.3	64	45.2	2	7	270	0.00	29.863 
16:55	57.2	57.2	57.2	64	45.1	3	11	248	0.00	29.863 
17:00	57.2	57.2	57.2	64	45.1	4	9	248	0.00	29.862 
17:05	57.0	57.0	57.0	64	44.9	3	7	248	0.00	29.862 
17:10	56.9	56.9	56.9	64	44.8	2	11	225	0.00	29.862 
17:15	56.7	56.7	56.7	65	45.1	2	6	248	0.00	29.860 
17:20	56.5	56.5	56.5	65	44.9	3	11	248	0.00	29.860 
17:25	56.3	56.3	56.3	65	44.7	3	9	248	0.00	29.860 
17:30	56.0	56.0	56.0	66	44.8	3	10	248	0.00	29.860 
17:35	55.7	55.7	55.7	66	44.5	3	10	248	0.00	29.860 
17:40	55.4	55.4	55.4	67	44.6	3	6	248	0.00	29.860 
17:45	55.3	55.3	55.3	67	44.5	3	13	225	0.00	29.872 
17:50	55.3	55.3	55.3	68	44.9	4	13	248	0.00	29.872 
17:55	55.1	55.1	55.1	68	44.7	3	10	248	0.00	29.872 
18:00	55.1	55.1	55.1	68	44.7	4	7	248	0.00	29.873 
18:05	55.1	55.1	55.1	68	44.7	3	7	248	0.00	29.873 
18:10	55.0	55.0	55.0	68	44.6	2	6	248	0.00	29.873 
18:15	54.8	54.8	54.8	69	44.8	2	5	248	0.00	29.880 
18:20	54.7	54.7	54.7	69	44.7	2	5	248	0.00	29.880 
18:25	54.5	54.5	54.5	69	44.5	3	7	248	0.00	29.880 
18:30	54.5	54.5	54.5	69	44.5	3	7	248	0.00	29.894 
18:35	54.4	54.4	54.4	70	44.8	2	5	248	0.00	29.894 
18:40	54.2	54.2	54.2	70	44.6	3	9	248	0.00	29.894 
18:45	54.1	54.1	54.1	70	44.5	3	6	248	0.00	29.897 
18:50	53.9	53.9	53.9	70	44.3	3	9	248	0.00	29.897 
18:55	53.8	53.8	53.8	71	44.6	3	10	248	0.00	29.897 
19:00	53.6	53.6	53.6	72	44.8	3	9	248	0.00	29.896 
19:05	53.6	53.6	53.6	72	44.8	3	11	248	0.00	29.896 
19:10	53.5	53.5	53.5	73	45.1	2	7	248	0.00	29.896 
19:15	53.3	53.3	53.3	74	45.2	3	9	248	0.00	29.895 
19:20	53.2	53.2	53.2	74	45.1	3	10	248	0.00	29.895 
19:25	53.1	53.1	53.1	75	45.4	3	9	248	0.00	29.895 
19:30	52.8	52.8	52.8	76	45.4	3	7	248	0.00	29.893 
19:35	52.5	52.5	52.5	76	45.2	2	5	248	0.00	29.893 
19:40	52.3	52.3	52.3	77	45.3	2	5	248	0.00	29.893 
19:45	52.0	52.0	52.0	78	45.4	2	6	248	0.00	29.897 
19:50	52.0	52.0	52.0	78	45.4	2	6	248	0.00	29.897 
19:55	52.0	52.0	52.0	78	45.4	2	7	270	0.00	29.897 
20:00	52.0	52.0	52.0	79	45.7	2	9	248	0.00	29.896 
20:05	52.0	52.0	52.0	79	45.7	3	9	248	0.00	29.896 
20:10	52.0	52.0	52.0	79	45.7	2	6	248	0.00	29.896 
20:15	51.9	51.9	51.9	79	45.6	2	9	248	0.00	29.896 
20:20	51.9	51.9	51.9	79	45.6	3	7	248	0.00	29.896 
20:25	51.9	51.9	51.9	79	45.6	3	7	270	0.00	29.896 
20:30	51.9	51.9	51.9	79	45.6	2	6	248	0.00	29.894 
20:35	51.9	51.9	51.9	79	45.6	2	6	225	0.00	29.894 
20:40	51.7	51.7	51.7	79	45.4	2	5	225	0.00	29.894 
20:45	51.9	51.9	51.9	79	45.6	4	12	248	0.00	29.891 
20:50	51.9	51.9	51.9	79	45.6	3	13	248	0.00	29.891 
20:55	51.9	51.9	51.9	79	45.6	3	7	248	0.00	29.891 
21:00	51.9	51.9	51.9	79	45.6	2	8	248	0.00	29.888 
21:05	51.9	51.9	51.9	79	45.6	3	9	248	0.00	29.888 
21:10	51.9	51.9	51.9	79	45.6	2	5	248	0.00	29.888 
21:15	51.9	51.9	51.9	79	45.6	2	5	248	0.00	29.883 
21:20	51.9	51.9	51.9	79	45.6	3	9	248	0.00	29.883 
21:25	51.9	51.9	51.9	79	45.6	2	7	248	0.00	29.883 
21:30	51.9	51.9	51.9	79	45.6	3	10	270	0.00	29.880 
21:35	51.9	51.9	51.9	79	45.6	3	6	248	0.00	29.880 
21:40	51.9	51.9	51.9	79	45.6	2	11	270	0.00	29.880 
21:45	51.9	51.9	51.9	79	45.6	3	6	248	0.00	29.877 
21:50	51.9	51.9	51.9	80	45.9	2	6	248	0.00	29.877 
21:55	51.9	51.9	51.9	80	45.9	3	9	248	0.00	29.877 
22:00	51.9	51.9	51.9	80	45.9	3	6	248	0.00	29.872 
22:05	51.9	51.9	51.9	80	45.9	3	6	248	0.00	29.872 
22:10	52.0	52.0	52.0	80	46.0	3	6	248	0.00	29.872 
22:15	52.0	52.0	52.0	80	46.0	2	6	248	0.00	29.868 
22:20	52.2	52.2	52.2	81	46.5	3	9	248	0.00	29.868 
22:25	52.2	52.2	52.2	81	46.5	3	10	248	0.00	29.868 
22:30	52.3	52.3	52.3	81	46.6	3	9	248	0.00	29.864 
22:35	52.3	52.3	52.3	81	46.6	3	9	248	0.00	29.864 
22:40	52.3	52.3	52.3	81	46.6	3	9	248	0.00	29.864 
22:45	52.3	52.3	52.3	81	46.6	2	6	248	0.00	29.860 
22:50	52.3	52.3	52.3	81	46.6	3	7	248	0.00	29.860 
22:55	52.5	52.5	52.5	81	46.8	3	8	248	0.00	29.860 
23:00	52.5	52.5	52.5	82	47.2	2	6	248	0.00	29.863 
23:05	52.5	52.5	52.5	82	47.2	3	9	248	0.00	29.863 
23:10	52.5	52.5	52.5	82	47.2	2	8	248	0.00	29.863 
23:15	52.5	52.5	52.5	82	47.2	2	10	248	0.00	29.857 
23:20	52.5	52.5	52.5	82	47.2	2	10	248	0.00	29.857 
23:25	52.5	52.5	52.5	83	47.5	2	10	248	0.00	29.857 
23:30	52.5	52.5	52.5	83	47.5	2	7	248	0.00	29.857 
23:35	52.5	52.5	52.5	83	47.5	2	6	248	0.00	29.857 
23:40	52.5	52.5	52.5	83	47.5	2	6	248	0.00	29.857 
23:45	52.5	52.5	52.5	84	47.8	2	6	248	0.00	29.857 
23:50	52.6	52.6	52.6	84	47.9	2	8	248	0.00	29.857 
23:55	52.6	52.6	52.6	84	47.9	2	7	270	0.00	29.857 

CoCoRaHS
IN-AL-39
A2 Web Hosting
Creative Commons License
GoDaddy
search engine by freefind advanced

loaded 2018-11-16 11:08:37 • last modified 2010-11-18 10:43:29
Privacy PolicyDisclaimer
• wx.awcolley.com is powered by PmWiki v.2002016 •
• all content (unless otherwise noted) © 2018 A W Colley